Time;durP1;ratioP1;P1;durP2;ratioP2;P2;SDS_P1;SDS_P2;PMS_P1;PMS_P2;Temp;Humidity;BMP_temperature;BMP_pressure;BME280_temperature;BME280_humidity;BME280_pressure;Samples;Min_cycle;Max_cycle;Signal;HPM_P1;HPM_P2
2023/06/27 00:01:16;;;;;;;;;;;17.30;99.90;;;;;;5078029;28;20001;-69
2023/06/27 00:03:43;;;;;;;;;;;17.20;99.90;;;;;;5077662;28;20100;-68
2023/06/27 00:06:19;;;;;;;;;;;17.20;99.90;;;;;;5078529;28;20099;-69
2023/06/27 00:08:46;;;;;;;;;;;17.20;99.90;;;;;;5077779;28;20470;-69
2023/06/27 00:11:13;;;;;;;;;;;17.20;99.90;;;;;;5078230;28;20002;-69
2023/06/27 00:13:41;;;;;;;;;;;17.10;99.90;;;;;;5077543;28;20001;-68
2023/06/27 00:16:13;;;;;;;;;;;17.00;99.90;;;;;;5078070;28;20346;-69
2023/06/27 00:18:40;;;;;;;;;;;16.90;99.90;;;;;;5078084;28;20062;-69
2023/06/27 00:21:07;;;;;;;;;;;16.90;99.90;;;;;;5077203;28;20449;-69
2023/06/27 00:23:35;;;;;;;;;;;16.90;99.90;;;;;;5077630;28;20001;-68
2023/06/27 00:26:02;;;;;;;;;;;16.90;99.90;;;;;;5077876;28;20001;-69
2023/06/27 00:28:29;;;;;;;;;;;16.90;99.90;;;;;;5078023;28;20008;-69
2023/06/27 00:30:56;;;;;;;;;;;16.90;99.90;;;;;;5077919;28;20477;-68
2023/06/27 00:33:22;;;;;;;;;;;16.90;99.90;;;;;;5077852;28;20059;-69
2023/06/27 00:35:49;;;;;;;;;;;16.80;99.90;;;;;;5077489;28;20005;-69
2023/06/27 00:38:16;;;;;;;;;;;16.80;99.90;;;;;;5077178;28;20497;-68
2023/06/27 00:40:44;;;;;;;;;;;16.70;99.90;;;;;;5077784;28;20124;-68
2023/06/27 00:43:10;;;;;;;;;;;16.80;99.90;;;;;;5080244;28;20001;-68
2023/06/27 00:45:37;;;;;;;;;;;16.80;99.90;;;;;;5079630;28;20011;-68
2023/06/27 00:48:04;;;;;;;;;;;16.80;99.90;;;;;;5079214;28;20047;-68
2023/06/27 00:50:31;;;;;;;;;;;16.70;99.90;;;;;;5078646;28;20084;-68
2023/06/27 00:52:59;;;;;;;;;;;16.70;99.90;;;;;;5079155;28;20001;-69
2023/06/27 00:55:26;;;;;;;;;;;16.70;99.90;;;;;;5077843;28;20311;-68
2023/06/27 00:57:54;;;;;;;;;;;16.60;99.90;;;;;;5077159;28;20048;-68
2023/06/27 01:00:21;;;;;;;;;;;16.60;99.90;;;;;;5076772;28;20023;-69
2023/06/27 01:02:48;;;;;;;;;;;16.50;99.90;;;;;;5077813;28;20030;-67
2023/06/27 01:05:16;;;;;;;;;;;16.50;99.90;;;;;;5077789;28;20104;-69
2023/06/27 01:07:46;;;;;;;;;;;16.50;99.90;;;;;;5077350;28;20011;-68
2023/06/27 01:10:14;;;;;;;;;;;16.50;99.90;;;;;;5076546;28;20002;-68
2023/06/27 01:12:45;;;;;;;;;;;16.40;99.90;;;;;;5076698;28;20011;-67
2023/06/27 01:15:13;;;;;;;;;;;16.30;99.90;;;;;;5076410;28;20001;-68
2023/06/27 01:17:40;;;;;;;;;;;16.30;99.90;;;;;;5077371;28;20011;-68
2023/06/27 01:20:09;;;;;;;;;;;16.30;99.90;;;;;;5078261;28;20115;-68
2023/06/27 01:22:37;;;;;;;;;;;16.20;99.90;;;;;;5077564;28;20054;-67
2023/06/27 01:25:09;;;;;;;;;;;16.20;99.90;;;;;;5077886;28;20045;-67
2023/06/27 01:27:35;;;;;;;;;;;16.10;99.90;;;;;;5077244;28;19997;-68
2023/06/27 01:30:03;;;;;;;;;;;16.10;99.90;;;;;;5076424;28;20115;-68
2023/06/27 01:32:34;;;;;;;;;;;16.10;99.90;;;;;;5077113;28;20041;-68
2023/06/27 01:35:04;;;;;;;;;;;16.10;99.90;;;;;;5076508;28;20012;-68
2023/06/27 01:37:35;;;;;;;;;;;16.00;99.90;;;;;;5075697;28;20022;-68
2023/06/27 01:40:04;;;;;;;;;;;16.00;99.90;;;;;;5076611;28;20112;-68
2023/06/27 01:42:34;;;;;;;;;;;16.00;99.90;;;;;;5076053;28;20001;-68
2023/06/27 01:45:02;;;;;;;;;;;15.90;99.90;;;;;;5075962;28;20001;-68
2023/06/27 01:47:33;;;;;;;;;;;15.90;99.90;;;;;;5075992;28;20005;-68
2023/06/27 01:50:03;;;;;;;;;;;15.90;99.90;;;;;;5075771;28;20005;-67
2023/06/27 01:52:29;;;;;;;;;;;15.80;99.90;;;;;;5075745;28;20099;-68
2023/06/27 01:54:56;;;;;;;;;;;15.80;99.90;;;;;;5075680;28;20104;-68
2023/06/27 01:57:23;;;;;;;;;;;15.80;99.90;;;;;;5075962;28;20341;-68
2023/06/27 01:59:52;;;;;;;;;;;15.80;99.90;;;;;;5075729;28;20078;-67
2023/06/27 02:02:18;;;;;;;;;;;15.80;99.90;;;;;;5076016;28;20001;-67
2023/06/27 02:04:45;;;;;;;;;;;15.80;99.90;;;;;;5075506;28;20007;-68
2023/06/27 02:07:12;;;;;;;;;;;15.80;99.90;;;;;;5075416;28;20002;-67
2023/06/27 02:09:39;;;;;;;;;;;15.80;99.90;;;;;;5075831;28;20024;-67
2023/06/27 02:12:06;;;;;;;;;;;15.70;99.90;;;;;;5075716;28;20008;-68
2023/06/27 02:14:32;;;;;;;;;;;15.70;99.90;;;;;;5076840;28;20001;-67
2023/06/27 02:17:00;;;;;;;;;;;15.70;99.90;;;;;;5076315;28;20005;-67
2023/06/27 02:19:30;;;;;;;;;;;15.60;99.90;;;;;;5075573;28;20011;-69
2023/06/27 02:21:57;;;;;;;;;;;15.60;99.90;;;;;;5075916;28;20011;-68
2023/06/27 02:24:24;;;;;;;;;;;15.60;99.90;;;;;;5075800;28;20001;-68
2023/06/27 02:26:51;;;;;;;;;;;15.60;99.90;;;;;;5076017;28;20002;-68
2023/06/27 02:29:17;;;;;;;;;;;15.60;99.90;;;;;;5076827;28;20059;-68
2023/06/27 02:31:44;;;;;;;;;;;15.60;99.90;;;;;;5076817;28;20062;-68
2023/06/27 02:34:12;;;;;;;;;;;15.50;99.90;;;;;;5077377;28;20331;-68
2023/06/27 02:36:39;;;;;;;;;;;15.50;99.90;;;;;;5076474;28;20457;-68
2023/06/27 02:39:05;;;;;;;;;;;15.40;99.90;;;;;;5077452;28;20331;-68
2023/06/27 02:41:32;;;;;;;;;;;15.40;99.90;;;;;;5077395;28;20528;-68
2023/06/27 02:43:59;;;;;;;;;;;15.30;99.90;;;;;;5077908;28;20054;-68
2023/06/27 02:46:25;;;;;;;;;;;15.30;99.90;;;;;;5077153;28;20001;-68
2023/06/27 02:48:52;;;;;;;;;;;15.30;99.90;;;;;;5077292;28;20116;-68
2023/06/27 02:51:21;;;;;;;;;;;15.40;99.90;;;;;;5081268;28;20396;-67
2023/06/27 02:53:48;;;;;;;;;;;15.30;99.90;;;;;;5081701;28;20059;-67
2023/06/27 02:56:14;;;;;;;;;;;15.30;99.90;;;;;;5081405;28;20001;-68
2023/06/27 02:58:41;;;;;;;;;;;15.20;99.90;;;;;;5081478;28;20002;-68
2023/06/27 03:01:08;;;;;;;;;;;15.20;99.90;;;;;;5080868;28;20414;-68
2023/06/27 03:03:34;;;;;;;;;;;15.20;99.90;;;;;;5080988;28;20450;-68
2023/06/27 03:06:03;;;;;;;;;;;15.20;99.90;;;;;;5080766;28;20007;-68
2023/06/27 03:08:31;;;;;;;;;;;15.20;99.90;;;;;;5080191;28;20063;-67
2023/06/27 03:11:01;;;;;;;;;;;15.20;99.90;;;;;;5080607;28;20001;-68
2023/06/27 03:13:28;;;;;;;;;;;15.20;99.90;;;;;;5081403;28;20012;-68
2023/06/27 03:15:54;;;;;;;;;;;15.20;99.90;;;;;;5081550;28;20104;-68
2023/06/27 03:18:21;;;;;;;;;;;15.10;99.90;;;;;;5080706;28;20011;-68
2023/06/27 03:20:47;;;;;;;;;;;15.10;99.90;;;;;;5081126;28;20064;-68
2023/06/27 03:23:14;;;;;;;;;;;15.10;99.90;;;;;;5080960;28;20001;-68
2023/06/27 03:25:42;;;;;;;;;;;15.10;99.90;;;;;;5081303;28;20371;-68
2023/06/27 03:28:09;;;;;;;;;;;15.00;99.90;;;;;;5080413;28;20059;-67
2023/06/27 03:30:37;;;;;;;;;;;15.10;99.90;;;;;;5080543;28;20096;-68
2023/06/27 03:33:03;;;;;;;;;;;15.10;99.90;;;;;;5080798;28;20012;-68
2023/06/27 03:35:30;;;;;;;;;;;15.10;99.90;;;;;;5082714;28;20005;-68
2023/06/27 03:37:57;;;;;;;;;;;15.10;99.90;;;;;;5081865;28;20121;-68
2023/06/27 03:40:24;;;;;;;;;;;15.10;99.90;;;;;;5080425;28;20078;-68
2023/06/27 03:42:52;;;;;;;;;;;15.10;99.90;;;;;;5080126;28;20011;-68
2023/06/27 03:45:19;;;;;;;;;;;15.00;99.90;;;;;;5080251;28;20382;-68
2023/06/27 03:47:46;;;;;;;;;;;15.00;99.90;;;;;;5080317;28;20125;-67
2023/06/27 03:50:13;;;;;;;;;;;15.00;99.90;;;;;;5080083;28;20055;-67
2023/06/27 03:52:39;;;;;;;;;;;15.00;99.90;;;;;;5079508;28;20005;-67
2023/06/27 03:55:06;;;;;;;;;;;15.00;99.90;;;;;;5079152;28;20001;-69
2023/06/27 03:57:33;;;;;;;;;;;15.00;99.90;;;;;;5080109;28;20091;-67
2023/06/27 04:00:01;;;;;;;;;;;15.00;99.90;;;;;;5078871;28;20399;-67
2023/06/27 04:02:28;;;;;;;;;;;15.00;99.90;;;;;;5079605;28;20311;-67
2023/06/27 04:04:54;;;;;;;;;;;15.00;99.90;;;;;;5079086;28;20001;-67
2023/06/27 04:07:21;;;;;;;;;;;15.00;99.90;;;;;;5079145;28;20349;-67
2023/06/27 04:09:48;;;;;;;;;;;15.00;99.90;;;;;;5079260;28;20002;-67
2023/06/27 04:12:14;;;;;;;;;;;15.00;99.90;;;;;;5078612;28;20394;-67
2023/06/27 04:14:41;;;;;;;;;;;15.00;99.90;;;;;;5079514;28;20001;-67
2023/06/27 04:17:09;;;;;;;;;;;15.00;99.90;;;;;;5079178;28;20095;-67
2023/06/27 04:19:38;;;;;;;;;;;15.00;99.90;;;;;;5078844;28;20011;-69
2023/06/27 04:22:05;;;;;;;;;;;15.00;99.90;;;;;;5078129;28;20077;-67
2023/06/27 04:24:32;;;;;;;;;;;15.00;99.90;;;;;;5079574;28;20330;-68
2023/06/27 04:27:02;;;;;;;;;;;15.00;99.90;;;;;;5079079;28;20325;-67
2023/06/27 04:29:30;;;;;;;;;;;15.00;99.90;;;;;;5079784;28;20023;-68
2023/06/27 04:31:56;;;;;;;;;;;15.00;99.90;;;;;;5078916;28;20000;-67
2023/06/27 04:34:24;;;;;;;;;;;15.10;99.90;;;;;;5078282;28;20100;-67
2023/06/27 04:36:52;;;;;;;;;;;15.00;99.90;;;;;;5078465;28;20021;-67
2023/06/27 04:39:18;;;;;;;;;;;15.00;99.90;;;;;;5078411;28;20001;-68
2023/06/27 04:41:45;;;;;;;;;;;15.00;99.90;;;;;;5077466;28;20016;-68
2023/06/27 04:44:12;;;;;;;;;;;15.00;99.90;;;;;;5077763;28;20012;-68
2023/06/27 04:46:38;;;;;;;;;;;15.00;99.90;;;;;;5077696;28;20001;-68
2023/06/27 04:49:05;;;;;;;;;;;15.00;99.90;;;;;;5079353;28;20051;-68
2023/06/27 04:51:35;;;;;;;;;;;15.00;99.90;;;;;;5079217;28;20001;-68
2023/06/27 04:54:01;;;;;;;;;;;15.20;99.90;;;;;;5078883;28;20400;-68
2023/06/27 04:56:28;;;;;;;;;;;15.20;99.90;;;;;;5077905;28;20000;-68
2023/06/27 04:58:55;;;;;;;;;;;15.20;99.90;;;;;;5077249;28;20006;-68
2023/06/27 05:01:21;;;;;;;;;;;15.20;99.90;;;;;;5076866;28;20355;-68
2023/06/27 05:03:48;;;;;;;;;;;15.20;99.90;;;;;;5077494;28;20027;-68
2023/06/27 05:06:18;;;;;;;;;;;15.30;99.90;;;;;;5077674;28;20326;-68
2023/06/27 05:08:46;;;;;;;;;;;15.40;99.90;;;;;;5077298;28;20001;-68
2023/06/27 05:11:12;;;;;;;;;;;15.30;99.90;;;;;;5077468;28;20342;-68
2023/06/27 05:13:42;;;;;;;;;;;15.40;99.90;;;;;;5076801;28;20011;-68
2023/06/27 05:16:08;;;;;;;;;;;15.40;99.90;;;;;;5077671;28;20059;-68
2023/06/27 05:18:35;;;;;;;;;;;15.30;99.90;;;;;;5076849;28;20445;-68
2023/06/27 05:21:02;;;;;;;;;;;15.30;99.90;;;;;;5077394;28;20013;-68
2023/06/27 05:23:29;;;;;;;;;;;15.40;99.90;;;;;;5077230;28;20096;-68
2023/06/27 05:25:57;;;;;;;;;;;15.50;99.90;;;;;;5076763;28;20002;-68
2023/06/27 05:28:24;;;;;;;;;;;15.40;99.90;;;;;;5076835;28;20012;-68
2023/06/27 05:30:50;;;;;;;;;;;15.50;99.90;;;;;;5077744;28;20055;-68
2023/06/27 05:33:17;;;;;;;;;;;15.60;99.90;;;;;;5077520;28;20000;-68
2023/06/27 05:35:43;;;;;;;;;;;15.70;99.90;;;;;;5077328;28;20095;-67
2023/06/27 05:38:10;;;;;;;;;;;15.70;99.90;;;;;;5076132;28;20042;-68
2023/06/27 05:40:37;;;;;;;;;;;15.70;99.90;;;;;;5076481;28;20068;-68
2023/06/27 05:43:08;;;;;;;;;;;15.70;99.90;;;;;;5076197;28;20047;-68
2023/06/27 05:45:35;;;;;;;;;;;15.70;99.90;;;;;;5076019;28;20001;-68
2023/06/27 05:48:02;;;;;;;;;;;15.70;99.90;;;;;;5076197;28;20001;-68
2023/06/27 05:50:29;;;;;;;;;;;15.70;99.90;;;;;;5076575;28;20002;-68
2023/06/27 05:52:55;;;;;;;;;;;15.80;99.90;;;;;;5076575;28;20001;-68
2023/06/27 05:55:25;;;;;;;;;;;15.80;99.90;;;;;;5075919;28;20206;-68
2023/06/27 05:57:51;;;;;;;;;;;15.90;99.90;;;;;;5075739;28;20092;-68
2023/06/27 06:00:21;;;;;;;;;;;15.80;99.90;;;;;;5076234;28;20099;-68
2023/06/27 06:02:47;;;;;;;;;;;15.90;99.90;;;;;;5076402;28;20025;-68
2023/06/27 06:05:14;;;;;;;;;;;16.00;99.90;;;;;;5076609;28;20065;-68
2023/06/27 06:07:42;;;;;;;;;;;16.00;99.90;;;;;;5076588;28;20092;-68
2023/06/27 06:10:09;;;;;;;;;;;16.00;99.90;;;;;;5076625;28;20013;-68
2023/06/27 06:12:36;;;;;;;;;;;16.20;99.90;;;;;;5076484;28;20080;-67
2023/06/27 06:15:03;;;;;;;;;;;16.30;99.90;;;;;;5075221;28;20008;-67
2023/06/27 06:17:33;;;;;;;;;;;16.30;99.90;;;;;;5076182;28;20001;-68
2023/06/27 06:20:00;;;;;;;;;;;16.30;99.90;;;;;;5076178;28;19997;-67
2023/06/27 06:22:27;;;;;;;;;;;16.40;99.90;;;;;;5075774;28;20075;-67
2023/06/27 06:24:54;;;;;;;;;;;16.40;99.90;;;;;;5076068;28;20001;-67
2023/06/27 06:27:20;;;;;;;;;;;16.60;99.90;;;;;;5075828;28;20011;-68
2023/06/27 06:29:47;;;;;;;;;;;16.50;99.90;;;;;;5075845;28;20059;-68
2023/06/27 06:32:14;;;;;;;;;;;16.50;99.90;;;;;;5075652;28;20006;-68
2023/06/27 06:34:42;;;;;;;;;;;16.40;99.90;;;;;;5075591;28;20387;-68
2023/06/27 06:37:08;;;;;;;;;;;16.50;99.90;;;;;;5074834;28;20021;-68
2023/06/27 06:39:35;;;;;;;;;;;16.60;99.90;;;;;;5075163;28;20264;-67
2023/06/27 06:42:03;;;;;;;;;;;16.70;99.90;;;;;;5074723;28;20062;-67
2023/06/27 06:44:29;;;;;;;;;;;16.70;99.90;;;;;;5075175;28;20012;-68
2023/06/27 06:46:56;;;;;;;;;;;16.70;99.90;;;;;;5075144;28;20449;-68
2023/06/27 06:49:23;;;;;;;;;;;16.80;99.90;;;;;;5075433;28;20001;-68
2023/06/27 06:51:51;;;;;;;;;;;16.70;99.90;;;;;;5075332;28;20012;-68
2023/06/27 06:54:17;;;;;;;;;;;16.80;99.90;;;;;;5074975;28;20000;-67
2023/06/27 06:56:44;;;;;;;;;;;16.80;99.90;;;;;;5075099;28;20001;-67
2023/06/27 06:59:11;;;;;;;;;;;16.90;99.90;;;;;;5075427;28;20045;-67
2023/06/27 07:01:37;;;;;;;;;;;17.20;99.90;;;;;;5075468;28;20013;-69
2023/06/27 07:04:04;;;;;;;;;;;17.20;99.90;;;;;;5075361;28;20305;-67
2023/06/27 07:06:31;;;;;;;;;;;17.20;99.90;;;;;;5075730;28;20099;-68
2023/06/27 07:08:59;;;;;;;;;;;16.80;99.90;;;;;;5076518;28;20001;-67
2023/06/27 07:11:25;;;;;;;;;;;16.80;99.90;;;;;;5075849;28;20001;-67
2023/06/27 07:13:52;;;;;;;;;;;16.90;99.90;;;;;;5075312;28;20095;-67
2023/06/27 07:16:19;;;;;;;;;;;16.80;99.90;;;;;;5076409;28;20055;-68
2023/06/27 07:18:45;;;;;;;;;;;17.00;99.90;;;;;;5075771;28;20444;-69
2023/06/27 07:21:12;;;;;;;;;;;17.10;99.90;;;;;;5075734;28;20011;-68
2023/06/27 07:23:41;;;;;;;;;;;17.30;99.90;;;;;;5076096;28;20069;-68
2023/06/27 07:26:09;;;;;;;;;;;17.30;99.90;;;;;;5076929;28;20001;-68
2023/06/27 07:28:36;;;;;;;;;;;17.40;99.90;;;;;;5076468;28;20011;-68
2023/06/27 07:31:02;;;;;;;;;;;17.30;99.90;;;;;;5076928;28;20001;-68
2023/06/27 07:33:29;;;;;;;;;;;17.20;99.90;;;;;;5074237;28;20001;-67
2023/06/27 07:35:56;;;;;;;;;;;17.30;99.90;;;;;;5075579;28;20419;-67
2023/06/27 07:38:23;;;;;;;;;;;17.40;99.90;;;;;;5077664;28;20021;-68
2023/06/27 07:40:50;;;;;;;;;;;17.60;99.90;;;;;;5077984;28;20001;-68
2023/06/27 07:43:18;;;;;;;;;;;17.70;99.90;;;;;;5077733;28;20024;-68
2023/06/27 07:45:45;;;;;;;;;;;17.70;99.90;;;;;;5077789;28;20106;-67
2023/06/27 07:48:11;;;;;;;;;;;17.70;99.90;;;;;;5077105;28;20095;-68
2023/06/27 07:50:38;;;;;;;;;;;17.70;99.90;;;;;;5077608;28;20012;-68
2023/06/27 07:53:05;;;;;;;;;;;17.80;99.90;;;;;;5077254;28;20044;-68
2023/06/27 07:55:31;;;;;;;;;;;17.80;99.90;;;;;;5077525;28;20015;-68
2023/06/27 07:57:58;;;;;;;;;;;17.70;99.90;;;;;;5077739;28;20091;-68
2023/06/27 08:00:26;;;;;;;;;;;17.60;99.90;;;;;;5077871;28;20002;-67
2023/06/27 08:02:53;;;;;;;;;;;17.30;99.90;;;;;;5077719;28;20013;-67
2023/06/27 08:05:19;;;;;;;;;;;17.30;99.90;;;;;;5077407;28;20001;-67
2023/06/27 08:07:46;;;;;;;;;;;17.30;99.90;;;;;;5077755;28;20001;-67
2023/06/27 08:10:13;;;;;;;;;;;17.40;99.90;;;;;;5077286;28;20422;-67
2023/06/27 08:12:40;;;;;;;;;;;17.60;99.90;;;;;;5077248;28;20088;-67
2023/06/27 08:15:07;;;;;;;;;;;17.60;99.90;;;;;;5077274;28;20367;-68
2023/06/27 08:17:35;;;;;;;;;;;17.80;99.90;;;;;;5076828;28;20099;-68
2023/06/27 08:20:03;;;;;;;;;;;17.90;99.90;;;;;;5077028;28;20100;-67
2023/06/27 08:22:30;;;;;;;;;;;18.00;99.90;;;;;;5077092;28;20060;-68
2023/06/27 08:24:56;;;;;;;;;;;18.00;99.90;;;;;;5076929;28;20092;-68
2023/06/27 08:27:23;;;;;;;;;;;18.10;99.90;;;;;;5077374;28;20087;-68
2023/06/27 08:29:50;;;;;;;;;;;18.20;99.90;;;;;;5077822;28;20009;-68
2023/06/27 08:32:17;;;;;;;;;;;18.20;99.90;;;;;;5077532;28;20011;-68
2023/06/27 08:34:45;;;;;;;;;;;18.30;99.90;;;;;;5077285;28;20009;-68
2023/06/27 08:37:13;;;;;;;;;;;18.40;99.90;;;;;;5077174;28;20381;-67
2023/06/27 08:39:40;;;;;;;;;;;18.40;99.90;;;;;;5077450;28;20310;-67
2023/06/27 08:42:07;;;;;;;;;;;18.50;99.90;;;;;;5077204;28;20052;-67
2023/06/27 08:44:33;;;;;;;;;;;18.80;99.90;;;;;;5077485;28;20001;-67
2023/06/27 08:47:02;;;;;;;;;;;18.80;99.90;;;;;;5077376;28;20095;-67
2023/06/27 08:49:31;;;;;;;;;;;18.60;99.90;;;;;;5076725;28;20001;-67
2023/06/27 08:52:01;;;;;;;;;;;18.50;99.90;;;;;;5077013;28;20028;-66
2023/06/27 08:54:32;;;;;;;;;;;18.60;99.90;;;;;;5076795;28;20104;-68
2023/06/27 08:57:00;;;;;;;;;;;18.40;99.90;;;;;;5076558;28;20369;-67
2023/06/27 08:59:27;;;;;;;;;;;18.40;99.90;;;;;;5076727;28;20011;-67
2023/06/27 09:01:55;;;;;;;;;;;18.40;99.90;;;;;;5076654;28;20013;-67
2023/06/27 09:04:22;;;;;;;;;;;18.70;99.90;;;;;;5076420;28;20092;-67
2023/06/27 09:06:49;;;;;;;;;;;18.80;99.90;;;;;;5076334;28;20469;-68
2023/06/27 09:09:17;;;;;;;;;;;19.00;99.90;;;;;;5076381;28;20011;-67
2023/06/27 09:11:44;;;;;;;;;;;18.70;99.90;;;;;;5076124;28;20011;-67
2023/06/27 09:14:11;;;;;;;;;;;18.50;99.90;;;;;;5076345;28;20001;-68
2023/06/27 09:16:37;;;;;;;;;;;18.30;99.90;;;;;;5076308;28;20397;-68
2023/06/27 09:19:04;;;;;;;;;;;18.10;99.90;;;;;;5075826;28;20422;-68
2023/06/27 09:21:32;;;;;;;;;;;17.60;99.90;;;;;;5076324;28;20012;-68
2023/06/27 09:24:05;;;;;;;;;;;16.80;99.90;;;;;;5076016;28;20341;-68
2023/06/27 09:26:33;;;;;;;;;;;16.10;99.90;;;;;;5075990;28;20100;-68
2023/06/27 09:29:00;;;;;;;;;;;15.80;99.90;;;;;;5075857;28;20336;-68
2023/06/27 09:31:27;;;;;;;;;;;15.70;99.90;;;;;;5075893;28;20333;-69
2023/06/27 09:34:03;;;;;;;;;;;15.60;99.90;;;;;;5075696;28;20436;-69
2023/06/27 09:36:31;;;;;;;;;;;15.50;99.90;;;;;;5075589;28;20333;-68
2023/06/27 09:39:00;;;;;;;;;;;15.50;99.90;;;;;;5075582;28;19997;-68
2023/06/27 09:41:39;;;;;;;;;;;15.50;99.90;;;;;;5075692;28;20002;-69
2023/06/27 09:44:10;;;;;;;;;;;15.90;99.90;;;;;;5075839;28;20001;-68
2023/06/27 09:46:38;;;;;;;;;;;16.30;99.90;;;;;;5075827;28;20021;-68
2023/06/27 09:49:06;;;;;;;;;;;16.50;99.90;;;;;;5075489;28;20001;-68
2023/06/27 09:51:33;;;;;;;;;;;16.80;99.90;;;;;;5075586;28;20058;-68
2023/06/27 09:54:00;;;;;;;;;;;17.10;99.90;;;;;;5075293;28;20008;-66
2023/06/27 09:56:28;;;;;;;;;;;17.40;99.90;;;;;;5075444;28;20200;-67
2023/06/27 09:58:55;;;;;;;;;;;17.60;99.90;;;;;;5074773;28;20458;-67
2023/06/27 10:01:27;;;;;;;;;;;17.60;99.90;;;;;;5075428;28;20380;-68
2023/06/27 10:03:53;;;;;;;;;;;17.90;99.90;;;;;;5075113;28;20021;-67
2023/06/27 10:06:20;;;;;;;;;;;18.10;99.90;;;;;;5075062;28;20001;-67
2023/06/27 10:08:47;;;;;;;;;;;18.20;99.90;;;;;;5074978;28;20007;-67
2023/06/27 10:11:14;;;;;;;;;;;18.40;99.90;;;;;;5075494;28;20095;-66
2023/06/27 10:13:41;;;;;;;;;;;18.50;99.90;;;;;;5075024;28;20092;-66
2023/06/27 10:16:08;;;;;;;;;;;18.40;99.90;;;;;;5075058;28;20001;-67
2023/06/27 10:18:36;;;;;;;;;;;18.30;99.90;;;;;;5074366;28;20001;-67
2023/06/27 10:21:03;;;;;;;;;;;18.70;99.90;;;;;;5074823;28;20456;-67
2023/06/27 10:23:31;;;;;;;;;;;19.00;99.90;;;;;;5077688;28;20119;-67
2023/06/27 10:25:58;;;;;;;;;;;19.00;99.90;;;;;;5077776;28;20088;-67
2023/06/27 10:28:25;;;;;;;;;;;19.10;99.90;;;;;;5080788;28;20001;-68
2023/06/27 10:30:51;;;;;;;;;;;19.30;99.90;;;;;;5079617;28;20001;-67
2023/06/27 10:33:27;;;;;;;;;;;19.40;99.90;;;;;;5076086;28;20002;-67
2023/06/27 10:35:58;;;;;;;;;;;19.30;99.90;;;;;;5074830;28;20003;-67
2023/06/27 10:38:32;;;;;;;;;;;19.40;99.90;;;;;;5075834;28;20468;-67
2023/06/27 10:41:12;;;;;;;;;;;19.20;99.90;;;;;;5076211;28;20004;-67
2023/06/27 10:43:39;;;;;;;;;;;19.00;99.90;;;;;;5076898;28;20032;-67
2023/06/27 10:46:06;;;;;;;;;;;18.20;99.90;;;;;;5076364;28;20009;-68
2023/06/27 10:48:34;;;;;;;;;;;17.30;99.90;;;;;;5078852;28;20468;-68
2023/06/27 10:51:06;;;;;;;;;;;16.50;99.90;;;;;;5078482;28;20486;-69
2023/06/27 10:53:32;;;;;;;;;;;15.70;99.90;;;;;;5077579;28;20002;-69
2023/06/27 10:56:03;;;;;;;;;;;15.20;99.90;;;;;;5077129;28;20044;-69
2023/06/27 10:58:44;;;;;;;;;;;15.20;99.90;;;;;;5077002;28;19998;-68
2023/06/27 11:01:11;;;;;;;;;;;15.10;99.90;;;;;;5079057;28;19996;-69
2023/06/27 11:03:39;;;;;;;;;;;15.20;99.90;;;;;;5079242;28;20464;-69
2023/06/27 11:06:07;;;;;;;;;;;15.30;99.90;;;;;;5079129;28;20001;-68
2023/06/27 11:08:33;;;;;;;;;;;15.30;99.90;;;;;;5080049;28;20461;-68
2023/06/27 11:11:04;;;;;;;;;;;15.30;99.90;;;;;;5082184;28;20001;-68
2023/06/27 11:13:31;;;;;;;;;;;15.50;99.90;;;;;;5083946;28;20001;-68
2023/06/27 11:15:58;;;;;;;;;;;15.80;99.90;;;;;;5083559;28;20026;-68
2023/06/27 11:18:26;;;;;;;;;;;16.00;99.90;;;;;;5082393;28;20370;-68
2023/06/27 11:20:52;;;;;;;;;;;16.30;99.90;;;;;;5082808;28;20465;-68
2023/06/27 11:23:21;;;;;;;;;;;16.30;99.90;;;;;;5081961;28;20072;-68
2023/06/27 11:25:48;;;;;;;;;;;16.60;99.90;;;;;;5083722;28;20091;-68
2023/06/27 11:28:18;;;;;;;;;;;17.10;99.90;;;;;;5081159;28;20003;-69
2023/06/27 11:30:45;;;;;;;;;;;17.80;99.90;;;;;;5081765;28;20414;-69
2023/06/27 11:33:13;;;;;;;;;;;18.70;99.90;;;;;;5081205;28;20058;-69
2023/06/27 11:35:40;;;;;;;;;;;19.50;99.90;;;;;;5081085;28;20410;-68
2023/06/27 11:38:07;;;;;;;;;;;19.40;99.90;;;;;;5080804;28;20021;-68
2023/06/27 11:40:36;;;;;;;;;;;19.70;99.90;;;;;;5081439;28;20015;-69
2023/06/27 11:43:03;;;;;;;;;;;20.30;99.90;;;;;;5080265;28;20023;-69
2023/06/27 11:45:30;;;;;;;;;;;20.90;99.90;;;;;;5078770;28;20059;-68
2023/06/27 11:47:57;;;;;;;;;;;20.90;99.90;;;;;;5079033;28;20001;-68
2023/06/27 11:50:24;;;;;;;;;;;21.20;99.90;;;;;;5079611;28;20000;-67
2023/06/27 11:52:51;;;;;;;;;;;20.80;99.90;;;;;;5080298;28;20002;-67
2023/06/27 11:55:18;;;;;;;;;;;21.00;99.90;;;;;;5079383;28;20096;-67
2023/06/27 11:57:46;;;;;;;;;;;21.60;99.90;;;;;;5078225;28;20009;-67
2023/06/27 12:00:14;;;;;;;;;;;21.70;99.90;;;;;;5078084;28;20092;-67
2023/06/27 12:02:40;;;;;;;;;;;22.00;99.90;;;;;;5077788;28;20027;-68
2023/06/27 12:05:12;;;;;;;;;;;22.30;99.90;;;;;;5078779;28;20013;-68
2023/06/27 12:07:39;;;;;;;;;;;21.80;99.90;;;;;;5078845;28;20007;-67
2023/06/27 12:10:06;;;;;;;;;;;21.30;99.90;;;;;;5078162;28;20001;-68
2023/06/27 12:12:39;;;;;;;;;;;20.60;99.90;;;;;;5078568;28;20001;-68
2023/06/27 12:15:11;;;;;;;;;;;19.60;99.90;;;;;;5077454;28;20351;-66
2023/06/27 12:17:38;;;;;;;;;;;18.90;99.90;;;;;;5077404;28;20051;-68
2023/06/27 12:20:05;;;;;;;;;;;18.40;99.90;;;;;;5077205;28;20015;-68
2023/06/27 12:22:32;;;;;;;;;;;18.10;99.90;;;;;;5076892;28;20369;-69
2023/06/27 12:24:58;;;;;;;;;;;17.80;99.90;;;;;;5077273;28;20023;-68
2023/06/27 12:27:25;;;;;;;;;;;17.60;99.90;;;;;;5077044;28;20437;-69
2023/06/27 12:29:53;;;;;;;;;;;17.40;99.90;;;;;;5076830;28;20001;-69
2023/06/27 12:32:24;;;;;;;;;;;17.30;99.90;;;;;;5076984;28;20005;-69
2023/06/27 12:34:51;;;;;;;;;;;17.20;99.90;;;;;;5077175;28;20011;-69
2023/06/27 12:37:18;;;;;;;;;;;17.20;99.90;;;;;;5077132;28;20021;-68
2023/06/27 12:39:45;;;;;;;;;;;17.40;99.90;;;;;;5076954;28;20009;-69
2023/06/27 12:42:13;;;;;;;;;;;17.50;99.90;;;;;;5076667;28;20430;-67
2023/06/27 12:44:41;;;;;;;;;;;17.50;99.90;;;;;;5077528;28;20044;-68
2023/06/27 12:47:08;;;;;;;;;;;17.40;99.90;;;;;;5077634;28;20001;-68
2023/06/27 12:49:36;;;;;;;;;;;17.30;99.90;;;;;;5078223;28;20012;-68
2023/06/27 12:52:02;;;;;;;;;;;17.40;99.90;;;;;;5077882;28;20001;-67
2023/06/27 12:54:29;;;;;;;;;;;17.80;99.90;;;;;;5077619;28;20001;-68
2023/06/27 12:56:56;;;;;;;;;;;18.30;99.90;;;;;;5078018;28;20011;-68
2023/06/27 12:59:26;;;;;;;;;;;19.00;99.90;;;;;;5077465;28;20047;-68
2023/06/27 13:01:56;;;;;;;;;;;19.80;99.90;;;;;;5077138;28;20001;-68
2023/06/27 13:04:22;;;;;;;;;;;20.70;99.90;;;;;;5076506;28;20023;-68
2023/06/27 13:06:50;;;;;;;;;;;21.70;99.90;;;;;;5076822;28;20336;-68
2023/06/27 13:09:17;;;;;;;;;;;22.00;99.90;;;;;;5076615;28;20002;-68
2023/06/27 13:11:44;;;;;;;;;;;22.10;99.90;;;;;;5076837;28;20040;-68
2023/06/27 13:14:10;;;;;;;;;;;21.70;99.90;;;;;;5077225;28;20048;-68
2023/06/27 13:16:37;;;;;;;;;;;21.40;99.90;;;;;;5077404;28;20088;-68
2023/06/27 13:19:07;;;;;;;;;;;21.60;99.90;;;;;;5077494;28;20325;-68
2023/06/27 13:21:33;;;;;;;;;;;21.80;99.90;;;;;;5077297;28;20055;-68
2023/06/27 13:24:02;;;;;;;;;;;22.30;99.90;;;;;;5076798;28;20019;-68
2023/06/27 13:26:29;;;;;;;;;;;22.60;99.90;;;;;;5076375;28;20392;-68
2023/06/27 13:28:56;;;;;;;;;;;22.50;99.90;;;;;;5076497;28;20016;-68
2023/06/27 13:31:23;;;;;;;;;;;22.70;99.90;;;;;;5076485;28;20002;-68
2023/06/27 13:33:51;;;;;;;;;;;22.80;99.90;;;;;;5075799;28;20326;-68
2023/06/27 13:36:18;;;;;;;;;;;23.10;99.90;;;;;;5075856;28;20426;-68
2023/06/27 13:38:45;;;;;;;;;;;23.40;99.90;;;;;;5076561;28;20001;-68
2023/06/27 13:41:13;;;;;;;;;;;21.90;99.90;;;;;;5076249;28;20051;-68
2023/06/27 13:43:42;;;;;;;;;;;21.10;99.90;;;;;;5076258;28;20131;-68
2023/06/27 13:46:09;;;;;;;;;;;21.20;99.90;;;;;;5076588;28;20024;-70
2023/06/27 13:48:39;;;;;;;;;;;21.00;99.90;;;;;;5076031;28;20063;-68
2023/06/27 13:51:06;;;;;;;;;;;20.60;99.90;;;;;;5076430;28;20005;-68
2023/06/27 13:53:32;;;;;;;;;;;21.10;99.90;;;;;;5076527;28;20115;-68
2023/06/27 13:55:59;;;;;;;;;;;21.10;99.90;;;;;;5076247;28;20036;-67
2023/06/27 13:58:29;;;;;;;;;;;20.60;99.90;;;;;;5075844;28;20001;-68
2023/06/27 14:00:57;;;;;;;;;;;20.30;99.90;;;;;;5076317;28;20004;-67
2023/06/27 14:03:23;;;;;;;;;;;19.70;99.90;;;;;;5075913;28;20020;-69
2023/06/27 14:05:51;;;;;;;;;;;19.60;99.90;;;;;;5076058;28;20005;-68
2023/06/27 14:08:17;;;;;;;;;;;19.60;99.90;;;;;;5075481;28;20001;-68
2023/06/27 14:10:45;;;;;;;;;;;20.20;99.90;;;;;;5075897;28;20001;-68
2023/06/27 14:13:11;;;;;;;;;;;20.60;99.90;;;;;;5075910;28;20000;-68
2023/06/27 14:15:39;;;;;;;;;;;20.30;99.90;;;;;;5075920;28;20002;-68
2023/06/27 14:18:06;;;;;;;;;;;20.10;99.90;;;;;;5076166;28;20084;-68